sensor_id;sensor_type;location;lat;lon;timestamp;P1;durP1;ratioP1;P2;durP2;ratioP2
41952;SDS011;63613;28.200;112.870;2023-11-19T00:01:04;22.60;;;15.85;;
41952;SDS011;63613;28.200;112.870;2023-11-19T00:03:31;23.50;;;15.98;;
41952;SDS011;63613;28.200;112.870;2023-11-19T00:05:59;25.05;;;15.55;;
41952;SDS011;63613;28.200;112.870;2023-11-19T00:08:26;23.27;;;15.90;;
41952;SDS011;63613;28.200;112.870;2023-11-19T00:10:54;23.17;;;16.92;;
41952;SDS011;63613;28.200;112.870;2023-11-19T00:13:20;24.75;;;14.35;;
41952;SDS011;63613;28.200;112.870;2023-11-19T00:15:48;22.00;;;15.88;;
41952;SDS011;63613;28.200;112.870;2023-11-19T00:18:15;21.17;;;15.18;;
41952;SDS011;63613;28.200;112.870;2023-11-19T00:20:42;21.38;;;14.95;;
41952;SDS011;63613;28.200;112.870;2023-11-19T00:23:10;21.85;;;14.80;;
41952;SDS011;63613;28.200;112.870;2023-11-19T00:25:56;24.90;;;14.75;;
41952;SDS011;63613;28.200;112.870;2023-11-19T00:28:23;21.67;;;15.48;;
41952;SDS011;63613;28.200;112.870;2023-11-19T00:30:50;21.90;;;15.02;;
41952;SDS011;63613;28.200;112.870;2023-11-19T00:33:17;21.65;;;15.77;;
41952;SDS011;63613;28.200;112.870;2023-11-19T00:35:43;23.77;;;15.52;;
41952;SDS011;63613;28.200;112.870;2023-11-19T00:38:10;22.13;;;15.70;;
41952;SDS011;63613;28.200;112.870;2023-11-19T00:40:38;22.13;;;15.00;;
41952;SDS011;63613;28.200;112.870;2023-11-19T00:43:06;24.67;;;16.08;;
41952;SDS011;63613;28.200;112.870;2023-11-19T00:45:33;30.50;;;17.50;;
41952;SDS011;63613;28.200;112.870;2023-11-19T00:47:59;26.20;;;16.90;;
41952;SDS011;63613;28.200;112.870;2023-11-19T00:50:26;30.85;;;16.83;;
41952;SDS011;63613;28.200;112.870;2023-11-19T00:52:54;29.05;;;17.05;;
41952;SDS011;63613;28.200;112.870;2023-11-19T00:55:21;24.75;;;17.08;;
41952;SDS011;63613;28.200;112.870;2023-11-19T00:57:49;23.75;;;16.83;;
41952;SDS011;63613;28.200;112.870;2023-11-19T01:00:15;24.27;;;16.27;;
41952;SDS011;63613;28.200;112.870;2023-11-19T01:02:51;23.95;;;15.93;;
41952;SDS011;63613;28.200;112.870;2023-11-19T01:05:20;24.63;;;16.17;;
41952;SDS011;63613;28.200;112.870;2023-11-19T01:07:48;24.70;;;14.95;;
41952;SDS011;63613;28.200;112.870;2023-11-19T01:10:15;22.58;;;14.98;;
41952;SDS011;63613;28.200;112.870;2023-11-19T01:12:44;23.10;;;15.20;;
41952;SDS011;63613;28.200;112.870;2023-11-19T01:15:10;24.30;;;15.93;;
41952;SDS011;63613;28.200;112.870;2023-11-19T01:17:38;29.27;;;15.65;;
41952;SDS011;63613;28.200;112.870;2023-11-19T01:20:25;25.75;;;16.73;;
41952;SDS011;63613;28.200;112.870;2023-11-19T01:22:52;26.83;;;15.75;;
41952;SDS011;63613;28.200;112.870;2023-11-19T01:25:19;23.65;;;15.77;;
41952;SDS011;63613;28.200;112.870;2023-11-19T01:27:45;25.30;;;16.67;;
41952;SDS011;63613;28.200;112.870;2023-11-19T01:30:12;27.38;;;15.82;;
41952;SDS011;63613;28.200;112.870;2023-11-19T01:32:39;25.75;;;16.25;;
41952;SDS011;63613;28.200;112.870;2023-11-19T01:35:06;24.55;;;17.10;;
41952;SDS011;63613;28.200;112.870;2023-11-19T01:37:33;27.85;;;17.40;;
41952;SDS011;63613;28.200;112.870;2023-11-19T01:40:01;28.85;;;16.88;;
41952;SDS011;63613;28.200;112.870;2023-11-19T01:42:30;26.15;;;16.70;;
41952;SDS011;63613;28.200;112.870;2023-11-19T01:45:27;28.65;;;16.27;;
41952;SDS011;63613;28.200;112.870;2023-11-19T01:47:58;24.73;;;15.88;;
41952;SDS011;63613;28.200;112.870;2023-11-19T01:50:30;25.33;;;16.55;;
41952;SDS011;63613;28.200;112.870;2023-11-19T01:52:58;23.42;;;15.80;;
41952;SDS011;63613;28.200;112.870;2023-11-19T01:55:26;24.95;;;16.98;;
41952;SDS011;63613;28.200;112.870;2023-11-19T01:57:54;24.42;;;16.73;;
41952;SDS011;63613;28.200;112.870;2023-11-19T02:00:25;27.73;;;17.88;;
41952;SDS011;63613;28.200;112.870;2023-11-19T02:02:52;29.45;;;17.33;;
41952;SDS011;63613;28.200;112.870;2023-11-19T02:05:22;24.05;;;15.75;;
41952;SDS011;63613;28.200;112.870;2023-11-19T02:07:49;27.23;;;17.25;;
41952;SDS011;63613;28.200;112.870;2023-11-19T02:10:17;29.83;;;17.80;;
41952;SDS011;63613;28.200;112.870;2023-11-19T02:12:45;31.20;;;19.17;;
41952;SDS011;63613;28.200;112.870;2023-11-19T02:15:12;36.95;;;21.77;;
41952;SDS011;63613;28.200;112.870;2023-11-19T02:17:39;34.33;;;19.95;;
41952;SDS011;63613;28.200;112.870;2023-11-19T02:20:07;40.90;;;23.75;;
41952;SDS011;63613;28.200;112.870;2023-11-19T02:22:40;40.13;;;22.88;;
41952;SDS011;63613;28.200;112.870;2023-11-19T02:25:30;37.65;;;21.52;;
41952;SDS011;63613;28.200;112.870;2023-11-19T02:27:59;37.85;;;22.20;;
41952;SDS011;63613;28.200;112.870;2023-11-19T02:30:28;42.22;;;24.13;;
41952;SDS011;63613;28.200;112.870;2023-11-19T02:32:57;45.53;;;21.77;;
41952;SDS011;63613;28.200;112.870;2023-11-19T02:35:30;38.88;;;22.83;;
41952;SDS011;63613;28.200;112.870;2023-11-19T02:37:59;44.42;;;22.67;;
41952;SDS011;63613;28.200;112.870;2023-11-19T02:40:53;41.33;;;20.15;;
41952;SDS011;63613;28.200;112.870;2023-11-19T02:43:20;39.05;;;21.73;;
41952;SDS011;63613;28.200;112.870;2023-11-19T02:45:46;57.45;;;27.30;;
41952;SDS011;63613;28.200;112.870;2023-11-19T02:48:13;98.18;;;39.30;;
41952;SDS011;63613;28.200;112.870;2023-11-19T02:50:42;53.55;;;26.30;;
41952;SDS011;63613;28.200;112.870;2023-11-19T02:53:09;53.20;;;25.63;;
41952;SDS011;63613;28.200;112.870;2023-11-19T02:55:40;49.65;;;26.77;;
41952;SDS011;63613;28.200;112.870;2023-11-19T02:58:13;53.03;;;25.17;;
41952;SDS011;63613;28.200;112.870;2023-11-19T03:00:56;44.35;;;22.30;;
41952;SDS011;63613;28.200;112.870;2023-11-19T03:03:28;44.95;;;23.30;;
41952;SDS011;63613;28.200;112.870;2023-11-19T03:06:06;45.78;;;22.02;;
41952;SDS011;63613;28.200;112.870;2023-11-19T03:08:35;45.80;;;24.40;;
41952;SDS011;63613;28.200;112.870;2023-11-19T03:11:02;50.33;;;25.95;;
41952;SDS011;63613;28.200;112.870;2023-11-19T03:13:30;51.08;;;22.67;;
41952;SDS011;63613;28.200;112.870;2023-11-19T03:16:18;46.67;;;22.95;;
41952;SDS011;63613;28.200;112.870;2023-11-19T03:18:47;41.67;;;21.77;;
41952;SDS011;63613;28.200;112.870;2023-11-19T03:21:14;43.35;;;21.35;;
41952;SDS011;63613;28.200;112.870;2023-11-19T03:23:42;46.05;;;23.15;;
41952;SDS011;63613;28.200;112.870;2023-11-19T03:26:10;37.22;;;21.98;;
41952;SDS011;63613;28.200;112.870;2023-11-19T03:28:37;45.08;;;22.98;;
41952;SDS011;63613;28.200;112.870;2023-11-19T03:31:06;41.97;;;22.05;;
41952;SDS011;63613;28.200;112.870;2023-11-19T03:33:33;43.20;;;23.63;;
41952;SDS011;63613;28.200;112.870;2023-11-19T03:36:00;45.67;;;24.10;;
41952;SDS011;63613;28.200;112.870;2023-11-19T03:38:27;45.92;;;22.23;;
41952;SDS011;63613;28.200;112.870;2023-11-19T03:40:54;52.38;;;26.48;;
41952;SDS011;63613;28.200;112.870;2023-11-19T03:43:22;62.40;;;42.08;;
41952;SDS011;63613;28.200;112.870;2023-11-19T03:45:49;55.53;;;33.97;;
41952;SDS011;63613;28.200;112.870;2023-11-19T03:48:16;54.42;;;31.48;;
41952;SDS011;63613;28.200;112.870;2023-11-19T03:50:43;49.17;;;30.02;;
41952;SDS011;63613;28.200;112.870;2023-11-19T03:53:11;48.80;;;28.25;;
41952;SDS011;63613;28.200;112.870;2023-11-19T03:55:38;88.90;;;38.83;;
41952;SDS011;63613;28.200;112.870;2023-11-19T03:58:05;134.32;;;48.22;;
41952;SDS011;63613;28.200;112.870;2023-11-19T04:00:33;133.38;;;48.72;;
41952;SDS011;63613;28.200;112.870;2023-11-19T04:03:00;443.83;;;142.20;;
41952;SDS011;63613;28.200;112.870;2023-11-19T04:05:32;334.58;;;106.93;;
41952;SDS011;63613;28.200;112.870;2023-11-19T04:07:59;288.85;;;91.93;;
41952;SDS011;63613;28.200;112.870;2023-11-19T04:10:46;298.35;;;97.03;;
41952;SDS011;63613;28.200;112.870;2023-11-19T04:13:13;341.20;;;113.15;;
41952;SDS011;63613;28.200;112.870;2023-11-19T04:15:41;259.25;;;97.97;;
41952;SDS011;63613;28.200;112.870;2023-11-19T04:18:08;270.15;;;98.15;;
41952;SDS011;63613;28.200;112.870;2023-11-19T04:20:35;182.45;;;71.78;;
41952;SDS011;63613;28.200;112.870;2023-11-19T04:23:02;176.30;;;71.43;;
41952;SDS011;63613;28.200;112.870;2023-11-19T04:25:29;128.93;;;55.42;;
41952;SDS011;63613;28.200;112.870;2023-11-19T04:27:56;126.15;;;49.88;;
41952;SDS011;63613;28.200;112.870;2023-11-19T04:30:23;102.50;;;46.47;;
41952;SDS011;63613;28.200;112.870;2023-11-19T04:32:51;91.72;;;39.08;;
41952;SDS011;63613;28.200;112.870;2023-11-19T04:35:17;90.85;;;40.72;;
41952;SDS011;63613;28.200;112.870;2023-11-19T04:37:44;52.55;;;23.95;;
41952;SDS011;63613;28.200;112.870;2023-11-19T04:40:12;58.35;;;28.77;;
41952;SDS011;63613;28.200;112.870;2023-11-19T04:42:39;49.13;;;22.75;;
41952;SDS011;63613;28.200;112.870;2023-11-19T04:45:06;54.33;;;25.75;;
41952;SDS011;63613;28.200;112.870;2023-11-19T04:47:36;45.30;;;23.95;;
41952;SDS011;63613;28.200;112.870;2023-11-19T04:50:04;57.53;;;27.88;;
41952;SDS011;63613;28.200;112.870;2023-11-19T04:52:31;56.65;;;25.42;;
41952;SDS011;63613;28.200;112.870;2023-11-19T04:55:00;59.35;;;26.08;;
41952;SDS011;63613;28.200;112.870;2023-11-19T04:57:26;43.33;;;22.75;;
41952;SDS011;63613;28.200;112.870;2023-11-19T04:59:54;28.85;;;15.10;;
41952;SDS011;63613;28.200;112.870;2023-11-19T05:02:21;53.38;;;34.65;;
41952;SDS011;63613;28.200;112.870;2023-11-19T05:04:49;52.13;;;31.73;;
41952;SDS011;63613;28.200;112.870;2023-11-19T05:07:16;47.85;;;31.65;;
41952;SDS011;63613;28.200;112.870;2023-11-19T05:09:49;52.55;;;32.38;;
41952;SDS011;63613;28.200;112.870;2023-11-19T05:12:35;48.42;;;30.38;;
41952;SDS011;63613;28.200;112.870;2023-11-19T05:15:02;47.03;;;26.60;;
41952;SDS011;63613;28.200;112.870;2023-11-19T05:17:29;44.42;;;25.15;;
41952;SDS011;63613;28.200;112.870;2023-11-19T05:19:56;38.70;;;24.88;;
41952;SDS011;63613;28.200;112.870;2023-11-19T05:22:23;41.05;;;23.42;;
41952;SDS011;63613;28.200;112.870;2023-11-19T05:24:53;40.83;;;24.10;;
41952;SDS011;63613;28.200;112.870;2023-11-19T05:27:21;39.25;;;21.92;;
41952;SDS011;63613;28.200;112.870;2023-11-19T05:29:49;35.65;;;21.05;;
41952;SDS011;63613;28.200;112.870;2023-11-19T05:32:16;42.03;;;23.98;;
41952;SDS011;63613;28.200;112.870;2023-11-19T05:34:42;48.28;;;28.02;;
41952;SDS011;63613;28.200;112.870;2023-11-19T05:37:12;49.42;;;27.63;;
41952;SDS011;63613;28.200;112.870;2023-11-19T05:39:41;42.58;;;25.70;;
41952;SDS011;63613;28.200;112.870;2023-11-19T05:42:10;54.42;;;27.40;;
41952;SDS011;63613;28.200;112.870;2023-11-19T05:44:37;37.95;;;22.30;;
41952;SDS011;63613;28.200;112.870;2023-11-19T05:47:04;39.90;;;22.50;;
41952;SDS011;63613;28.200;112.870;2023-11-19T05:49:31;35.78;;;20.75;;
41952;SDS011;63613;28.200;112.870;2023-11-19T05:51:58;31.70;;;18.10;;
41952;SDS011;63613;28.200;112.870;2023-11-19T05:54:27;37.08;;;19.55;;
41952;SDS011;63613;28.200;112.870;2023-11-19T05:56:54;33.55;;;17.60;;
41952;SDS011;63613;28.200;112.870;2023-11-19T05:59:23;32.25;;;18.38;;
41952;SDS011;63613;28.200;112.870;2023-11-19T06:01:55;30.77;;;17.00;;
41952;SDS011;63613;28.200;112.870;2023-11-19T06:04:23;29.20;;;15.70;;
41952;SDS011;63613;28.200;112.870;2023-11-19T06:06:50;27.00;;;14.75;;
41952;SDS011;63613;28.200;112.870;2023-11-19T06:09:17;31.80;;;16.45;;
41952;SDS011;63613;28.200;112.870;2023-11-19T06:11:44;29.17;;;14.98;;
41952;SDS011;63613;28.200;112.870;2023-11-19T06:14:12;25.60;;;15.18;;
41952;SDS011;63613;28.200;112.870;2023-11-19T06:16:41;26.33;;;13.05;;
41952;SDS011;63613;28.200;112.870;2023-11-19T06:19:09;27.00;;;13.35;;
41952;SDS011;63613;28.200;112.870;2023-11-19T06:21:39;21.50;;;13.45;;
41952;SDS011;63613;28.200;112.870;2023-11-19T06:24:07;27.20;;;14.07;;
41952;SDS011;63613;28.200;112.870;2023-11-19T06:26:34;24.60;;;14.00;;
41952;SDS011;63613;28.200;112.870;2023-11-19T06:29:02;22.35;;;13.15;;
41952;SDS011;63613;28.200;112.870;2023-11-19T06:31:29;26.55;;;12.82;;
41952;SDS011;63613;28.200;112.870;2023-11-19T06:34:16;29.45;;;12.82;;
41952;SDS011;63613;28.200;112.870;2023-11-19T06:36:45;21.42;;;12.05;;
41952;SDS011;63613;28.200;112.870;2023-11-19T06:39:11;21.88;;;11.93;;
41952;SDS011;63613;28.200;112.870;2023-11-19T06:41:38;21.80;;;12.45;;
41952;SDS011;63613;28.200;112.870;2023-11-19T06:44:09;19.38;;;11.43;;
41952;SDS011;63613;28.200;112.870;2023-11-19T06:46:40;20.83;;;11.50;;
41952;SDS011;63613;28.200;112.870;2023-11-19T06:49:07;23.35;;;12.07;;
41952;SDS011;63613;28.200;112.870;2023-11-19T06:51:34;24.27;;;11.95;;
41952;SDS011;63613;28.200;112.870;2023-11-19T06:54:01;19.83;;;10.82;;
41952;SDS011;63613;28.200;112.870;2023-11-19T06:56:28;20.88;;;12.25;;
41952;SDS011;63613;28.200;112.870;2023-11-19T06:58:55;22.33;;;12.13;;
41952;SDS011;63613;28.200;112.870;2023-11-19T07:01:23;19.67;;;11.55;;
41952;SDS011;63613;28.200;112.870;2023-11-19T07:03:49;20.88;;;11.70;;
41952;SDS011;63613;28.200;112.870;2023-11-19T07:06:19;17.60;;;10.93;;
41952;SDS011;63613;28.200;112.870;2023-11-19T07:08:48;20.23;;;11.25;;
41952;SDS011;63613;28.200;112.870;2023-11-19T07:11:16;18.67;;;11.07;;
41952;SDS011;63613;28.200;112.870;2023-11-19T07:13:42;19.45;;;11.70;;
41952;SDS011;63613;28.200;112.870;2023-11-19T07:16:11;19.35;;;11.15;;
41952;SDS011;63613;28.200;112.870;2023-11-19T07:18:40;15.13;;;11.05;;
41952;SDS011;63613;28.200;112.870;2023-11-19T07:21:09;22.75;;;13.05;;
41952;SDS011;63613;28.200;112.870;2023-11-19T07:23:36;18.88;;;11.40;;
41952;SDS011;63613;28.200;112.870;2023-11-19T07:26:05;18.80;;;11.82;;
41952;SDS011;63613;28.200;112.870;2023-11-19T07:28:36;20.70;;;10.95;;
41952;SDS011;63613;28.200;112.870;2023-11-19T07:31:05;18.70;;;10.73;;
41952;SDS011;63613;28.200;112.870;2023-11-19T07:33:34;23.70;;;11.35;;
41952;SDS011;63613;28.200;112.870;2023-11-19T07:36:01;18.60;;;11.38;;
41952;SDS011;63613;28.200;112.870;2023-11-19T07:38:28;20.98;;;11.07;;
41952;SDS011;63613;28.200;112.870;2023-11-19T07:40:55;19.02;;;10.95;;
41952;SDS011;63613;28.200;112.870;2023-11-19T07:43:22;17.58;;;11.15;;
41952;SDS011;63613;28.200;112.870;2023-11-19T07:45:51;23.10;;;11.75;;
41952;SDS011;63613;28.200;112.870;2023-11-19T07:48:18;16.77;;;11.40;;
41952;SDS011;63613;28.200;112.870;2023-11-19T07:50:52;19.38;;;11.63;;
41952;SDS011;63613;28.200;112.870;2023-11-19T07:53:19;19.05;;;11.57;;
41952;SDS011;63613;28.200;112.870;2023-11-19T07:55:47;19.25;;;11.65;;
41952;SDS011;63613;28.200;112.870;2023-11-19T07:58:14;20.25;;;12.43;;
41952;SDS011;63613;28.200;112.870;2023-11-19T08:00:41;18.38;;;12.00;;
41952;SDS011;63613;28.200;112.870;2023-11-19T08:03:08;23.85;;;13.73;;
41952;SDS011;63613;28.200;112.870;2023-11-19T08:05:36;23.02;;;12.18;;
41952;SDS011;63613;28.200;112.870;2023-11-19T08:08:03;22.13;;;13.20;;
41952;SDS011;63613;28.200;112.870;2023-11-19T08:10:30;19.33;;;11.57;;
41952;SDS011;63613;28.200;112.870;2023-11-19T08:12:58;23.83;;;12.35;;
41952;SDS011;63613;28.200;112.870;2023-11-19T08:15:27;20.73;;;11.88;;
41952;SDS011;63613;28.200;112.870;2023-11-19T08:17:53;20.13;;;11.85;;
41952;SDS011;63613;28.200;112.870;2023-11-19T08:20:22;16.70;;;11.95;;
41952;SDS011;63613;28.200;112.870;2023-11-19T08:22:49;20.38;;;12.20;;
41952;SDS011;63613;28.200;112.870;2023-11-19T08:25:19;19.52;;;12.05;;
41952;SDS011;63613;28.200;112.870;2023-11-19T08:27:48;16.45;;;10.90;;
41952;SDS011;63613;28.200;112.870;2023-11-19T08:30:15;17.67;;;12.32;;
41952;SDS011;63613;28.200;112.870;2023-11-19T08:32:45;24.20;;;13.50;;
41952;SDS011;63613;28.200;112.870;2023-11-19T08:35:36;21.70;;;13.95;;
41952;SDS011;63613;28.200;112.870;2023-11-19T08:38:03;26.52;;;15.73;;
41952;SDS011;63613;28.200;112.870;2023-11-19T08:40:30;25.92;;;16.23;;
41952;SDS011;63613;28.200;112.870;2023-11-19T08:43:17;27.08;;;16.35;;
41952;SDS011;63613;28.200;112.870;2023-11-19T08:45:46;21.92;;;16.63;;
41952;SDS011;63613;28.200;112.870;2023-11-19T08:48:12;22.20;;;14.95;;
41952;SDS011;63613;28.200;112.870;2023-11-19T08:50:39;27.20;;;15.65;;
41952;SDS011;63613;28.200;112.870;2023-11-19T08:53:14;26.05;;;16.83;;
41952;SDS011;63613;28.200;112.870;2023-11-19T08:55:42;23.23;;;15.15;;
41952;SDS011;63613;28.200;112.870;2023-11-19T08:58:09;22.17;;;14.98;;
41952;SDS011;63613;28.200;112.870;2023-11-19T09:00:38;23.33;;;13.88;;
41952;SDS011;63613;28.200;112.870;2023-11-19T09:03:05;23.67;;;13.65;;
41952;SDS011;63613;28.200;112.870;2023-11-19T09:05:34;19.20;;;12.63;;
41952;SDS011;63613;28.200;112.870;2023-11-19T09:08:02;22.00;;;13.77;;
41952;SDS011;63613;28.200;112.870;2023-11-19T09:10:29;25.75;;;13.68;;
41952;SDS011;63613;28.200;112.870;2023-11-19T09:12:57;15.43;;;13.15;;
41952;SDS011;63613;28.200;112.870;2023-11-19T09:15:24;19.95;;;13.75;;
41952;SDS011;63613;28.200;112.870;2023-11-19T09:17:52;22.02;;;13.65;;
41952;SDS011;63613;28.200;112.870;2023-11-19T09:20:19;27.92;;;14.95;;
41952;SDS011;63613;28.200;112.870;2023-11-19T09:22:46;22.73;;;13.40;;
41952;SDS011;63613;28.200;112.870;2023-11-19T09:25:13;22.38;;;13.57;;
41952;SDS011;63613;28.200;112.870;2023-11-19T09:27:43;23.42;;;14.23;;
41952;SDS011;63613;28.200;112.870;2023-11-19T09:30:11;27.92;;;13.93;;
41952;SDS011;63613;28.200;112.870;2023-11-19T09:32:38;22.10;;;14.35;;
41952;SDS011;63613;28.200;112.870;2023-11-19T09:35:05;25.45;;;13.45;;
41952;SDS011;63613;28.200;112.870;2023-11-19T09:37:32;24.45;;;14.32;;
41952;SDS011;63613;28.200;112.870;2023-11-19T09:40:02;23.92;;;13.32;;
41952;SDS011;63613;28.200;112.870;2023-11-19T09:42:29;23.27;;;13.77;;
41952;SDS011;63613;28.200;112.870;2023-11-19T09:45:03;23.58;;;13.25;;
41952;SDS011;63613;28.200;112.870;2023-11-19T09:47:38;23.10;;;14.30;;
41952;SDS011;63613;28.200;112.870;2023-11-19T09:50:07;23.48;;;13.90;;
41952;SDS011;63613;28.200;112.870;2023-11-19T09:52:35;24.50;;;14.15;;
41952;SDS011;63613;28.200;112.870;2023-11-19T09:55:04;23.88;;;13.43;;
41952;SDS011;63613;28.200;112.870;2023-11-19T09:57:32;26.88;;;14.60;;
41952;SDS011;63613;28.200;112.870;2023-11-19T10:00:03;23.92;;;13.63;;
41952;SDS011;63613;28.200;112.870;2023-11-19T10:02:31;23.45;;;14.43;;
41952;SDS011;63613;28.200;112.870;2023-11-19T10:05:04;25.20;;;15.75;;
41952;SDS011;63613;28.200;112.870;2023-11-19T10:07:33;29.95;;;14.85;;
41952;SDS011;63613;28.200;112.870;2023-11-19T10:10:01;23.77;;;14.63;;
41952;SDS011;63613;28.200;112.870;2023-11-19T10:12:31;38.10;;;20.70;;
41952;SDS011;63613;28.200;112.870;2023-11-19T10:14:58;46.47;;;22.58;;
41952;SDS011;63613;28.200;112.870;2023-11-19T10:17:28;61.20;;;26.25;;
41952;SDS011;63613;28.200;112.870;2023-11-19T10:19:58;54.25;;;26.52;;
41952;SDS011;63613;28.200;112.870;2023-11-19T10:22:25;66.00;;;28.27;;
41952;SDS011;63613;28.200;112.870;2023-11-19T10:24:54;80.18;;;32.80;;
41952;SDS011;63613;28.200;112.870;2023-11-19T10:27:23;70.47;;;30.50;;
41952;SDS011;63613;28.200;112.870;2023-11-19T10:29:51;67.70;;;33.25;;
41952;SDS011;63613;28.200;112.870;2023-11-19T10:32:18;73.28;;;32.63;;
41952;SDS011;63613;28.200;112.870;2023-11-19T10:34:44;68.70;;;30.48;;
41952;SDS011;63613;28.200;112.870;2023-11-19T10:37:32;66.80;;;29.85;;
41952;SDS011;63613;28.200;112.870;2023-11-19T10:40:00;70.55;;;30.50;;
41952;SDS011;63613;28.200;112.870;2023-11-19T10:42:48;59.88;;;28.40;;
41952;SDS011;63613;28.200;112.870;2023-11-19T10:45:23;69.70;;;31.33;;
41952;SDS011;63613;28.200;112.870;2023-11-19T10:47:54;68.57;;;33.60;;
41952;SDS011;63613;28.200;112.870;2023-11-19T10:50:22;68.97;;;31.40;;
41952;SDS011;63613;28.200;112.870;2023-11-19T10:52:51;75.32;;;34.47;;
41952;SDS011;63613;28.200;112.870;2023-11-19T10:55:41;71.03;;;35.55;;
41952;SDS011;63613;28.200;112.870;2023-11-19T10:58:12;78.03;;;35.03;;
41952;SDS011;63613;28.200;112.870;2023-11-19T11:00:45;72.53;;;35.85;;
41952;SDS011;63613;28.200;112.870;2023-11-19T11:03:21;74.05;;;36.13;;
41952;SDS011;63613;28.200;112.870;2023-11-19T11:05:51;75.20;;;37.35;;
41952;SDS011;63613;28.200;112.870;2023-11-19T11:08:20;73.75;;;34.15;;
41952;SDS011;63613;28.200;112.870;2023-11-19T11:10:53;68.95;;;33.53;;
41952;SDS011;63613;28.200;112.870;2023-11-19T11:13:24;78.47;;;35.78;;
41952;SDS011;63613;28.200;112.870;2023-11-19T11:15:55;77.82;;;37.53;;
41952;SDS011;63613;28.200;112.870;2023-11-19T11:18:26;64.57;;;35.17;;
41952;SDS011;63613;28.200;112.870;2023-11-19T11:20:57;68.13;;;36.22;;
41952;SDS011;63613;28.200;112.870;2023-11-19T11:29:04;66.88;;;35.67;;
41952;SDS011;63613;28.200;112.870;2023-11-19T11:31:36;72.50;;;35.97;;
41952;SDS011;63613;28.200;112.870;2023-11-19T11:40:02;72.47;;;36.42;;
41952;SDS011;63613;28.200;112.870;2023-11-19T11:42:36;81.22;;;39.85;;
41952;SDS011;63613;28.200;112.870;2023-11-19T11:45:04;72.50;;;37.58;;
41952;SDS011;63613;28.200;112.870;2023-11-19T11:50:14;69.57;;;37.35;;
41952;SDS011;63613;28.200;112.870;2023-11-19T11:55:39;73.05;;;37.78;;
41952;SDS011;63613;28.200;112.870;2023-11-19T11:58:30;72.10;;;39.17;;
41952;SDS011;63613;28.200;112.870;2023-11-19T12:00:58;75.35;;;37.95;;
41952;SDS011;63613;28.200;112.870;2023-11-19T12:03:36;71.88;;;39.03;;
41952;SDS011;63613;28.200;112.870;2023-11-19T12:06:04;66.72;;;37.92;;
41952;SDS011;63613;28.200;112.870;2023-11-19T12:08:30;73.75;;;38.45;;
41952;SDS011;63613;28.200;112.870;2023-11-19T12:11:00;66.82;;;38.28;;
41952;SDS011;63613;28.200;112.870;2023-11-19T12:13:42;74.38;;;38.92;;
41952;SDS011;63613;28.200;112.870;2023-11-19T12:16:15;76.95;;;40.95;;
41952;SDS011;63613;28.200;112.870;2023-11-19T12:18:44;76.45;;;37.90;;
41952;SDS011;63613;28.200;112.870;2023-11-19T12:21:11;68.13;;;39.00;;
41952;SDS011;63613;28.200;112.870;2023-11-19T12:23:53;64.40;;;37.60;;
41952;SDS011;63613;28.200;112.870;2023-11-19T12:26:33;69.90;;;38.00;;
41952;SDS011;63613;28.200;112.870;2023-11-19T12:29:00;74.28;;;40.40;;
41952;SDS011;63613;28.200;112.870;2023-11-19T12:31:29;71.57;;;38.42;;
41952;SDS011;63613;28.200;112.870;2023-11-19T12:33:57;73.35;;;41.63;;
41952;SDS011;63613;28.200;112.870;2023-11-19T12:36:26;73.43;;;39.75;;
41952;SDS011;63613;28.200;112.870;2023-11-19T12:38:53;71.47;;;39.15;;
41952;SDS011;63613;28.200;112.870;2023-11-19T12:41:20;71.88;;;39.33;;
41952;SDS011;63613;28.200;112.870;2023-11-19T12:43:50;63.65;;;38.15;;
41952;SDS011;63613;28.200;112.870;2023-11-19T12:46:20;73.72;;;40.03;;
41952;SDS011;63613;28.200;112.870;2023-11-19T12:48:48;73.97;;;41.20;;
41952;SDS011;63613;28.200;112.870;2023-11-19T12:51:17;77.18;;;41.25;;
41952;SDS011;63613;28.200;112.870;2023-11-19T12:53:49;69.60;;;40.30;;
41952;SDS011;63613;28.200;112.870;2023-11-19T12:56:19;72.03;;;40.90;;
41952;SDS011;63613;28.200;112.870;2023-11-19T12:59:10;71.65;;;39.40;;
41952;SDS011;63613;28.200;112.870;2023-11-19T13:01:39;68.68;;;38.85;;
41952;SDS011;63613;28.200;112.870;2023-11-19T13:04:19;70.35;;;40.45;;
41952;SDS011;63613;28.200;112.870;2023-11-19T13:07:06;70.85;;;41.80;;
41952;SDS011;63613;28.200;112.870;2023-11-19T13:09:33;67.82;;;39.38;;
41952;SDS011;63613;28.200;112.870;2023-11-19T13:12:11;68.45;;;39.55;;
41952;SDS011;63613;28.200;112.870;2023-11-19T13:14:43;69.18;;;39.15;;
41952;SDS011;63613;28.200;112.870;2023-11-19T13:17:14;66.78;;;38.67;;
41952;SDS011;63613;28.200;112.870;2023-11-19T13:19:41;76.43;;;39.63;;
41952;SDS011;63613;28.200;112.870;2023-11-19T13:22:08;68.20;;;40.22;;
41952;SDS011;63613;28.200;112.870;2023-11-19T13:24:35;70.72;;;39.47;;
41952;SDS011;63613;28.200;112.870;2023-11-19T13:27:03;68.95;;;39.85;;
41952;SDS011;63613;28.200;112.870;2023-11-19T13:29:30;62.58;;;38.08;;
41952;SDS011;63613;28.200;112.870;2023-11-19T13:31:58;72.03;;;39.45;;
41952;SDS011;63613;28.200;112.870;2023-11-19T13:34:25;69.47;;;41.28;;
41952;SDS011;63613;28.200;112.870;2023-11-19T13:36:52;77.00;;;41.92;;
41952;SDS011;63613;28.200;112.870;2023-11-19T13:39:20;70.35;;;40.80;;
41952;SDS011;63613;28.200;112.870;2023-11-19T13:41:51;67.45;;;39.15;;
41952;SDS011;63613;28.200;112.870;2023-11-19T13:44:17;73.85;;;42.50;;
41952;SDS011;63613;28.200;112.870;2023-11-19T13:46:44;69.72;;;39.70;;
41952;SDS011;63613;28.200;112.870;2023-11-19T13:49:12;68.32;;;41.50;;
41952;SDS011;63613;28.200;112.870;2023-11-19T13:51:39;67.55;;;40.05;;
41952;SDS011;63613;28.200;112.870;2023-11-19T13:54:06;77.30;;;41.95;;
41952;SDS011;63613;28.200;112.870;2023-11-19T13:56:32;75.15;;;41.22;;
41952;SDS011;63613;28.200;112.870;2023-11-19T13:59:01;68.03;;;40.75;;
41952;SDS011;63613;28.200;112.870;2023-11-19T14:01:35;68.85;;;40.58;;
41952;SDS011;63613;28.200;112.870;2023-11-19T14:04:03;72.45;;;41.05;;
41952;SDS011;63613;28.200;112.870;2023-11-19T14:06:31;68.63;;;41.67;;
41952;SDS011;63613;28.200;112.870;2023-11-19T14:09:00;73.75;;;42.33;;
41952;SDS011;63613;28.200;112.870;2023-11-19T14:11:46;67.07;;;40.55;;
41952;SDS011;63613;28.200;112.870;2023-11-19T14:14:17;75.63;;;42.35;;
41952;SDS011;63613;28.200;112.870;2023-11-19T14:16:48;73.90;;;42.67;;
41952;SDS011;63613;28.200;112.870;2023-11-19T14:19:15;69.43;;;41.15;;
41952;SDS011;63613;28.200;112.870;2023-11-19T14:21:41;69.22;;;41.05;;
41952;SDS011;63613;28.200;112.870;2023-11-19T14:24:10;68.85;;;41.47;;
41952;SDS011;63613;28.200;112.870;2023-11-19T14:26:36;71.03;;;40.72;;